Mangrove Mountain AWS, Australia

11:55 AM AEDT on December 11, 2016 (GMT +1100)
Mangrove Creek | | Change Station

Elev 25 ft 33.36 °S, 151.14 °E | Updated 3 seconds ago

Clear
Clear
83.3 °F
Feels Like 84 °F
N
0.4
Wind Variable Wind from WNW
Gusts 2.5 mph

Today
High -- | Low -- °F
--% Chance of Precip.
Yesterday
High -- | Low -- °F
Precip. -- in
Pressure 30.12 in
Visibility 6.2 miles
Clouds Scattered Clouds 3600 ft
Heat Index 84 °F
Dew Point 63 °F
Humidity 51%
Rainfall 0.00 in
Snow Depth Not available.
5:39 AM 7:57 PM
Waxing Gibbous, 87% visible
METAR YSRI 110030Z AUTO 03005KT 9999 SCT036 26/15 Q1020 RF00.0/000.0 PRESENT WEATHER SENSOR US
Pressure 30.12 in
Visibility 6.2 miles
Clouds Scattered Clouds 3600 ft
Heat Index 84 °F
Dew Point 63 °F
Humidity 51%
Rainfall 0.00 in
Snow Depth Not available.
5:39 AM 7:57 PM
Waxing Gibbous, 87% visible
METAR YSRI 110030Z AUTO 03005KT 9999 SCT036 26/15 Q1020 RF00.0/000.0 PRESENT WEATHER SENSOR US

10-Day Weather Forecast

×

Almanac

Astronomy

Dec. 11, 2016 Rise Set
Actual Time
Civil Twilight
Nautical Twilight
Astronomical Twilight
Moon
Length of Visible Light
Length of Day
Tomorrow will be .
, % of the Moon is Illuminated

Today's Extremes

Country Highs Country Lows

Community

WunderPhotos

Upload Photos

1,956,685 photos uploaded!

WunderBlog® & News

Nearby

Air Quality

  Air Quality AQ Index Pollutant
Not available.

Snow Depth

Station Depth Elevation

Earthquake Activity

City Distance Mag. Time & Date
Minimum magnitude displayed is 2.5.

Coastal Water Temperatures

Place Temperature

Stations

Nearby Weather Stations

Station Location Temp. Windchill Dew Point Humidity Wind Precip. Elev Updated Type